sensor_id;sensor_type;location;lat;lon;timestamp;pressure;altitude;pressure_sealevel;temperature;humidity
77019;BME280;66044;53.142;17.962;2023-11-21T00:02:23;100463.42;;;0.91;85.18
77019;BME280;66044;53.142;17.962;2023-11-21T00:04:50;100462.82;;;0.90;85.23
77019;BME280;66044;53.142;17.962;2023-11-21T00:07:16;100468.79;;;0.88;85.28
77019;BME280;66044;53.142;17.962;2023-11-21T00:09:43;100470.48;;;0.87;85.36
77019;BME280;66044;53.142;17.962;2023-11-21T00:12:09;100474.60;;;0.87;85.32
77019;BME280;66044;53.142;17.962;2023-11-21T00:14:40;100473.48;;;0.86;85.25
77019;BME280;66044;53.142;17.962;2023-11-21T00:17:06;100479.78;;;0.83;85.10
77019;BME280;66044;53.142;17.962;2023-11-21T00:19:33;100484.29;;;0.82;85.40
77019;BME280;66044;53.142;17.962;2023-11-21T00:22:01;100483.81;;;0.79;85.51
77019;BME280;66044;53.142;17.962;2023-11-21T00:24:27;100486.77;;;0.80;85.41
77019;BME280;66044;53.142;17.962;2023-11-21T00:26:54;100486.66;;;0.78;85.45
77019;BME280;66044;53.142;17.962;2023-11-21T00:29:20;100485.28;;;0.78;85.69
77019;BME280;66044;53.142;17.962;2023-11-21T00:31:46;100483.11;;;0.78;85.45
77019;BME280;66044;53.142;17.962;2023-11-21T00:34:13;100487.23;;;0.78;85.44
77019;BME280;66044;53.142;17.962;2023-11-21T00:36:40;100488.08;;;0.78;85.45
77019;BME280;66044;53.142;17.962;2023-11-21T00:39:06;100494.32;;;0.79;85.48
77019;BME280;66044;53.142;17.962;2023-11-21T00:41:34;100494.48;;;0.79;85.54
77019;BME280;66044;53.142;17.962;2023-11-21T00:44:00;100501.25;;;0.77;85.40
77019;BME280;66044;53.142;17.962;2023-11-21T00:46:27;100507.38;;;0.75;85.42
77019;BME280;66044;53.142;17.962;2023-11-21T00:48:55;100509.98;;;0.74;85.45
77019;BME280;66044;53.142;17.962;2023-11-21T00:51:22;100512.67;;;0.71;85.34
77019;BME280;66044;53.142;17.962;2023-11-21T00:53:48;100514.10;;;0.71;85.48
77019;BME280;66044;53.142;17.962;2023-11-21T00:56:15;100518.33;;;0.71;85.59
77019;BME280;66044;53.142;17.962;2023-11-21T00:58:41;100517.05;;;0.71;85.75
77019;BME280;66044;53.142;17.962;2023-11-21T01:01:16;100521.29;;;0.71;85.57
77019;BME280;66044;53.142;17.962;2023-11-21T01:03:43;100519.16;;;0.70;85.44
77019;BME280;66044;53.142;17.962;2023-11-21T01:06:09;100524.34;;;0.68;85.23
77019;BME280;66044;53.142;17.962;2023-11-21T01:08:36;100524.73;;;0.66;85.29
77019;BME280;66044;53.142;17.962;2023-11-21T01:11:02;100528.36;;;0.63;85.22
77019;BME280;66044;53.142;17.962;2023-11-21T01:13:29;100534.17;;;0.62;85.20
77019;BME280;66044;53.142;17.962;2023-11-21T01:15:56;100533.43;;;0.60;85.44
77019;BME280;66044;53.142;17.962;2023-11-21T01:18:23;100538.14;;;0.59;85.26
77019;BME280;66044;53.142;17.962;2023-11-21T01:20:52;100539.24;;;0.57;85.20
77019;BME280;66044;53.142;17.962;2023-11-21T01:23:20;100543.25;;;0.55;85.26
77019;BME280;66044;53.142;17.962;2023-11-21T01:25:46;100544.52;;;0.53;85.27
77019;BME280;66044;53.142;17.962;2023-11-21T01:28:13;100545.56;;;0.54;85.33
77019;BME280;66044;53.142;17.962;2023-11-21T01:30:39;100550.43;;;0.53;85.31
77019;BME280;66044;53.142;17.962;2023-11-21T01:33:06;100551.72;;;0.51;85.28
77019;BME280;66044;53.142;17.962;2023-11-21T01:35:32;100550.49;;;0.50;85.16
77019;BME280;66044;53.142;17.962;2023-11-21T01:38:00;100549.89;;;0.48;85.42
77019;BME280;66044;53.142;17.962;2023-11-21T01:40:26;100548.36;;;0.48;85.44
77019;BME280;66044;53.142;17.962;2023-11-21T01:42:55;100548.41;;;0.47;85.41
77019;BME280;66044;53.142;17.962;2023-11-21T01:45:23;100546.52;;;0.47;85.31
77019;BME280;66044;53.142;17.962;2023-11-21T01:47:51;100550.58;;;0.46;85.33
77019;BME280;66044;53.142;17.962;2023-11-21T01:50:37;100559.30;;;0.45;85.36
77019;BME280;66044;53.142;17.962;2023-11-21T01:53:03;100562.95;;;0.46;85.28
77019;BME280;66044;53.142;17.962;2023-11-21T01:55:30;100565.64;;;0.41;85.11
77019;BME280;66044;53.142;17.962;2023-11-21T01:57:57;100574.52;;;0.41;85.24
77019;BME280;66044;53.142;17.962;2023-11-21T02:00:24;100576.56;;;0.36;85.12
77019;BME280;66044;53.142;17.962;2023-11-21T02:02:51;100574.31;;;0.31;85.18
77019;BME280;66044;53.142;17.962;2023-11-21T02:05:18;100571.93;;;0.27;85.15
77019;BME280;66044;53.142;17.962;2023-11-21T02:07:45;100572.98;;;0.24;85.26
77019;BME280;66044;53.142;17.962;2023-11-21T02:10:16;100577.63;;;0.22;85.19
77019;BME280;66044;53.142;17.962;2023-11-21T02:12:44;100580.90;;;0.21;85.11
77019;BME280;66044;53.142;17.962;2023-11-21T02:15:13;100585.54;;;0.19;85.21
77019;BME280;66044;53.142;17.962;2023-11-21T02:17:52;100585.83;;;0.17;85.02
77019;BME280;66044;53.142;17.962;2023-11-21T02:20:21;100585.89;;;0.15;85.04
77019;BME280;66044;53.142;17.962;2023-11-21T02:22:53;100580.13;;;0.13;85.17
77019;BME280;66044;53.142;17.962;2023-11-21T02:25:28;100578.11;;;0.11;85.10
77019;BME280;66044;53.142;17.962;2023-11-21T02:27:57;100583.81;;;0.11;84.89
77019;BME280;66044;53.142;17.962;2023-11-21T02:30:24;100582.80;;;0.11;85.27
77019;BME280;66044;53.142;17.962;2023-11-21T02:32:51;100585.88;;;0.11;85.12
77019;BME280;66044;53.142;17.962;2023-11-21T02:35:23;100588.20;;;0.11;85.17
77019;BME280;66044;53.142;17.962;2023-11-21T02:37:52;100589.46;;;0.11;85.34
77019;BME280;66044;53.142;17.962;2023-11-21T02:40:19;100590.88;;;0.10;84.97
77019;BME280;66044;53.142;17.962;2023-11-21T02:42:47;100595.63;;;0.09;85.12
77019;BME280;66044;53.142;17.962;2023-11-21T02:45:15;100593.45;;;0.07;85.37
77019;BME280;66044;53.142;17.962;2023-11-21T02:47:45;100596.88;;;0.05;85.27
77019;BME280;66044;53.142;17.962;2023-11-21T02:50:12;100604.20;;;0.03;85.20
77019;BME280;66044;53.142;17.962;2023-11-21T02:52:39;100604.83;;;-0.00;85.11
77019;BME280;66044;53.142;17.962;2023-11-21T02:55:06;100607.88;;;-0.03;85.14
77019;BME280;66044;53.142;17.962;2023-11-21T02:57:34;100614.14;;;-0.05;85.15
77019;BME280;66044;53.142;17.962;2023-11-21T03:00:00;100613.45;;;-0.07;85.00
77019;BME280;66044;53.142;17.962;2023-11-21T03:02:26;100623.65;;;-0.08;84.97
77019;BME280;66044;53.142;17.962;2023-11-21T03:04:53;100619.74;;;-0.09;85.02
77019;BME280;66044;53.142;17.962;2023-11-21T03:07:20;100620.73;;;-0.10;84.70
77019;BME280;66044;53.142;17.962;2023-11-21T03:09:46;100619.04;;;-0.11;85.01
77019;BME280;66044;53.142;17.962;2023-11-21T03:12:12;100621.50;;;-0.12;84.65
77019;BME280;66044;53.142;17.962;2023-11-21T03:14:39;100627.12;;;-0.11;84.73
77019;BME280;66044;53.142;17.962;2023-11-21T03:17:06;100629.71;;;-0.10;84.82
77019;BME280;66044;53.142;17.962;2023-11-21T03:19:33;100629.61;;;-0.08;84.81
77019;BME280;66044;53.142;17.962;2023-11-21T03:21:59;100633.73;;;-0.06;84.85
77019;BME280;66044;53.142;17.962;2023-11-21T03:24:28;100635.47;;;-0.06;84.93
77019;BME280;66044;53.142;17.962;2023-11-21T03:26:55;100636.96;;;-0.06;84.77
77019;BME280;66044;53.142;17.962;2023-11-21T03:29:21;100639.54;;;-0.06;84.79
77019;BME280;66044;53.142;17.962;2023-11-21T03:31:48;100643.87;;;-0.07;84.71
77019;BME280;66044;53.142;17.962;2023-11-21T03:34:19;100647.09;;;-0.08;84.68
77019;BME280;66044;53.142;17.962;2023-11-21T03:36:46;100647.14;;;-0.10;84.67
77019;BME280;66044;53.142;17.962;2023-11-21T03:39:13;100651.39;;;-0.12;84.42
77019;BME280;66044;53.142;17.962;2023-11-21T03:41:39;100652.42;;;-0.14;84.43
77019;BME280;66044;53.142;17.962;2023-11-21T03:44:06;100651.63;;;-0.14;84.34
77019;BME280;66044;53.142;17.962;2023-11-21T03:46:32;100650.74;;;-0.15;84.31
77019;BME280;66044;53.142;17.962;2023-11-21T03:48:58;100646.68;;;-0.16;84.43
77019;BME280;66044;53.142;17.962;2023-11-21T03:51:25;100646.35;;;-0.16;84.18
77019;BME280;66044;53.142;17.962;2023-11-21T03:53:51;100637.39;;;-0.16;84.13
77019;BME280;66044;53.142;17.962;2023-11-21T03:56:18;100642.50;;;-0.16;84.22
77019;BME280;66044;53.142;17.962;2023-11-21T03:58:44;100641.52;;;-0.16;84.20
77019;BME280;66044;53.142;17.962;2023-11-21T04:01:11;100640.82;;;-0.16;84.20
77019;BME280;66044;53.142;17.962;2023-11-21T04:03:37;100647.36;;;-0.15;84.28
77019;BME280;66044;53.142;17.962;2023-11-21T04:06:05;100651.81;;;-0.15;84.10
77019;BME280;66044;53.142;17.962;2023-11-21T04:08:32;100654.02;;;-0.15;84.21
77019;BME280;66044;53.142;17.962;2023-11-21T04:11:00;100657.40;;;-0.15;84.14
77019;BME280;66044;53.142;17.962;2023-11-21T04:13:27;100656.80;;;-0.18;83.98
77019;BME280;66044;53.142;17.962;2023-11-21T04:15:53;100661.58;;;-0.20;83.95
77019;BME280;66044;53.142;17.962;2023-11-21T04:18:20;100663.30;;;-0.22;83.67
77019;BME280;66044;53.142;17.962;2023-11-21T04:20:48;100666.05;;;-0.24;83.80
77019;BME280;66044;53.142;17.962;2023-11-21T04:23:15;100671.85;;;-0.25;83.87
77019;BME280;66044;53.142;17.962;2023-11-21T04:25:42;100676.33;;;-0.25;83.70
77019;BME280;66044;53.142;17.962;2023-11-21T04:28:09;100672.61;;;-0.27;83.69
77019;BME280;66044;53.142;17.962;2023-11-21T04:30:35;100676.30;;;-0.28;83.86
77019;BME280;66044;53.142;17.962;2023-11-21T04:33:01;100671.59;;;-0.29;83.90
77019;BME280;66044;53.142;17.962;2023-11-21T04:35:29;100674.76;;;-0.29;83.69
77019;BME280;66044;53.142;17.962;2023-11-21T04:37:55;100678.30;;;-0.32;83.51
77019;BME280;66044;53.142;17.962;2023-11-21T04:40:23;100673.83;;;-0.34;83.35
77019;BME280;66044;53.142;17.962;2023-11-21T04:42:49;100682.36;;;-0.37;83.21
77019;BME280;66044;53.142;17.962;2023-11-21T04:45:16;100685.95;;;-0.38;83.28
77019;BME280;66044;53.142;17.962;2023-11-21T04:47:42;100691.17;;;-0.37;83.45
77019;BME280;66044;53.142;17.962;2023-11-21T04:50:10;100694.77;;;-0.39;83.48
77019;BME280;66044;53.142;17.962;2023-11-21T04:52:36;100700.52;;;-0.40;83.35
77019;BME280;66044;53.142;17.962;2023-11-21T04:55:03;100706.19;;;-0.41;83.18
77019;BME280;66044;53.142;17.962;2023-11-21T04:57:30;100710.33;;;-0.44;83.28
77019;BME280;66044;53.142;17.962;2023-11-21T04:59:57;100717.02;;;-0.46;82.92
77019;BME280;66044;53.142;17.962;2023-11-21T05:02:23;100716.23;;;-0.50;82.84
77019;BME280;66044;53.142;17.962;2023-11-21T05:04:52;100719.81;;;-0.52;82.66
77019;BME280;66044;53.142;17.962;2023-11-21T05:07:19;100719.70;;;-0.54;82.41
77019;BME280;66044;53.142;17.962;2023-11-21T05:09:46;100727.68;;;-0.53;82.84
77019;BME280;66044;53.142;17.962;2023-11-21T05:12:12;100724.40;;;-0.53;82.74
77019;BME280;66044;53.142;17.962;2023-11-21T05:14:40;100727.66;;;-0.54;82.63
77019;BME280;66044;53.142;17.962;2023-11-21T05:17:08;100724.77;;;-0.53;82.54
77019;BME280;66044;53.142;17.962;2023-11-21T05:19:34;100724.24;;;-0.53;82.32
77019;BME280;66044;53.142;17.962;2023-11-21T05:22:01;100723.66;;;-0.53;82.63
77019;BME280;66044;53.142;17.962;2023-11-21T05:24:28;100729.95;;;-0.52;82.76
77019;BME280;66044;53.142;17.962;2023-11-21T05:26:54;100725.88;;;-0.52;82.67
77019;BME280;66044;53.142;17.962;2023-11-21T05:29:22;100732.63;;;-0.51;82.57
77019;BME280;66044;53.142;17.962;2023-11-21T05:31:49;100738.08;;;-0.50;82.61
77019;BME280;66044;53.142;17.962;2023-11-21T05:34:15;100744.55;;;-0.49;82.61
77019;BME280;66044;53.142;17.962;2023-11-21T05:36:45;100753.48;;;-0.46;82.84
77019;BME280;66044;53.142;17.962;2023-11-21T05:39:11;100750.31;;;-0.45;82.76
77019;BME280;66044;53.142;17.962;2023-11-21T05:41:38;100758.80;;;-0.45;82.65
77019;BME280;66044;53.142;17.962;2023-11-21T05:44:04;100758.91;;;-0.44;82.82
77019;BME280;66044;53.142;17.962;2023-11-21T05:46:31;100761.34;;;-0.44;82.64
77019;BME280;66044;53.142;17.962;2023-11-21T05:48:58;100767.30;;;-0.44;82.81
77019;BME280;66044;53.142;17.962;2023-11-21T05:51:24;100771.53;;;-0.44;82.57
77019;BME280;66044;53.142;17.962;2023-11-21T05:53:51;100770.98;;;-0.45;82.79
77019;BME280;66044;53.142;17.962;2023-11-21T05:56:17;100772.73;;;-0.45;82.64
77019;BME280;66044;53.142;17.962;2023-11-21T05:58:44;100777.28;;;-0.44;83.03
77019;BME280;66044;53.142;17.962;2023-11-21T06:01:10;100784.43;;;-0.42;82.88
77019;BME280;66044;53.142;17.962;2023-11-21T06:03:39;100786.39;;;-0.41;82.83
77019;BME280;66044;53.142;17.962;2023-11-21T06:06:06;100794.38;;;-0.41;82.78
77019;BME280;66044;53.142;17.962;2023-11-21T06:08:33;100799.23;;;-0.40;82.47
77019;BME280;66044;53.142;17.962;2023-11-21T06:10:59;100804.16;;;-0.42;82.58
77019;BME280;66044;53.142;17.962;2023-11-21T06:13:26;100805.03;;;-0.45;82.19
77019;BME280;66044;53.142;17.962;2023-11-21T06:15:52;100805.26;;;-0.49;82.17
77019;BME280;66044;53.142;17.962;2023-11-21T06:18:19;100810.73;;;-0.50;82.32
77019;BME280;66044;53.142;17.962;2023-11-21T06:20:46;100814.40;;;-0.52;82.32
77019;BME280;66044;53.142;17.962;2023-11-21T06:23:13;100819.21;;;-0.53;82.26
77019;BME280;66044;53.142;17.962;2023-11-21T06:25:40;100826.93;;;-0.55;81.95
77019;BME280;66044;53.142;17.962;2023-11-21T06:28:06;100835.20;;;-0.57;81.90
77019;BME280;66044;53.142;17.962;2023-11-21T06:30:33;100837.08;;;-0.58;81.83
77019;BME280;66044;53.142;17.962;2023-11-21T06:32:59;100842.92;;;-0.60;81.65
77019;BME280;66044;53.142;17.962;2023-11-21T06:35:26;100840.27;;;-0.59;81.61
77019;BME280;66044;53.142;17.962;2023-11-21T06:37:56;100845.52;;;-0.58;81.49
77019;BME280;66044;53.142;17.962;2023-11-21T06:40:22;100853.44;;;-0.57;81.90
77019;BME280;66044;53.142;17.962;2023-11-21T06:42:49;100855.30;;;-0.57;81.86
77019;BME280;66044;53.142;17.962;2023-11-21T06:45:16;100853.80;;;-0.57;81.45
77019;BME280;66044;53.142;17.962;2023-11-21T06:47:43;100855.42;;;-0.59;81.20
77019;BME280;66044;53.142;17.962;2023-11-21T06:50:09;100857.48;;;-0.59;81.63
77019;BME280;66044;53.142;17.962;2023-11-21T06:52:36;100859.93;;;-0.57;81.32
77019;BME280;66044;53.142;17.962;2023-11-21T06:55:03;100865.00;;;-0.57;81.30
77019;BME280;66044;53.142;17.962;2023-11-21T06:57:29;100868.38;;;-0.57;81.21
77019;BME280;66044;53.142;17.962;2023-11-21T06:59:55;100871.17;;;-0.57;81.12
77019;BME280;66044;53.142;17.962;2023-11-21T07:02:23;100875.77;;;-0.56;81.18
77019;BME280;66044;53.142;17.962;2023-11-21T07:04:50;100883.98;;;-0.55;81.17
77019;BME280;66044;53.142;17.962;2023-11-21T07:07:17;100885.94;;;-0.54;80.80
77019;BME280;66044;53.142;17.962;2023-11-21T07:09:44;100889.64;;;-0.53;80.77
77019;BME280;66044;53.142;17.962;2023-11-21T07:12:11;100891.28;;;-0.51;80.61
77019;BME280;66044;53.142;17.962;2023-11-21T07:14:37;100894.79;;;-0.50;80.39
77019;BME280;66044;53.142;17.962;2023-11-21T07:17:05;100900.84;;;-0.50;80.13
77019;BME280;66044;53.142;17.962;2023-11-21T07:19:33;100901.04;;;-0.52;80.05
77019;BME280;66044;53.142;17.962;2023-11-21T07:22:00;100908.47;;;-0.52;80.04
77019;BME280;66044;53.142;17.962;2023-11-21T07:24:29;100908.41;;;-0.53;79.56
77019;BME280;66044;53.142;17.962;2023-11-21T07:26:58;100910.74;;;-0.52;79.83
77019;BME280;66044;53.142;17.962;2023-11-21T07:29:25;100913.33;;;-0.52;79.32
77019;BME280;66044;53.142;17.962;2023-11-21T07:31:57;100916.95;;;-0.50;79.59
77019;BME280;66044;53.142;17.962;2023-11-21T07:34:23;100919.27;;;-0.50;79.63
77019;BME280;66044;53.142;17.962;2023-11-21T07:36:49;100918.95;;;-0.49;79.30
77019;BME280;66044;53.142;17.962;2023-11-21T07:39:16;100920.39;;;-0.49;79.27
77019;BME280;66044;53.142;17.962;2023-11-21T07:41:42;100930.01;;;-0.48;79.18
77019;BME280;66044;53.142;17.962;2023-11-21T07:44:15;100930.55;;;-0.47;79.11
77019;BME280;66044;53.142;17.962;2023-11-21T07:46:43;100919.59;;;-0.45;78.95
77019;BME280;66044;53.142;17.962;2023-11-21T07:49:10;100917.48;;;-0.40;78.96
77019;BME280;66044;53.142;17.962;2023-11-21T07:51:37;100922.75;;;-0.35;78.79
77019;BME280;66044;53.142;17.962;2023-11-21T07:54:03;100925.07;;;-0.33;78.69
77019;BME280;66044;53.142;17.962;2023-11-21T07:56:30;100928.52;;;-0.27;79.12
77019;BME280;66044;53.142;17.962;2023-11-21T07:58:56;100930.73;;;-0.22;78.82
77019;BME280;66044;53.142;17.962;2023-11-21T08:01:23;100931.89;;;-0.17;78.72
77019;BME280;66044;53.142;17.962;2023-11-21T08:03:49;100930.85;;;-0.14;78.14
77019;BME280;66044;53.142;17.962;2023-11-21T08:06:18;100930.77;;;-0.09;78.25
77019;BME280;66044;53.142;17.962;2023-11-21T08:08:44;100938.86;;;-0.02;78.18
77019;BME280;66044;53.142;17.962;2023-11-21T08:11:11;100935.48;;;0.03;77.79
77019;BME280;66044;53.142;17.962;2023-11-21T08:13:38;100939.41;;;0.06;77.85
77019;BME280;66044;53.142;17.962;2023-11-21T08:16:05;100945.20;;;0.10;77.32
77019;BME280;66044;53.142;17.962;2023-11-21T08:18:33;100946.72;;;0.13;76.83
77019;BME280;66044;53.142;17.962;2023-11-21T08:21:00;100954.29;;;0.15;76.67
77019;BME280;66044;53.142;17.962;2023-11-21T08:23:27;100949.42;;;0.13;76.23
77019;BME280;66044;53.142;17.962;2023-11-21T08:25:53;100949.42;;;0.13;75.35
77019;BME280;66044;53.142;17.962;2023-11-21T08:28:20;100947.02;;;0.17;75.11
77019;BME280;66044;53.142;17.962;2023-11-21T08:30:48;100946.27;;;0.22;75.26
77019;BME280;66044;53.142;17.962;2023-11-21T08:33:15;100955.06;;;0.25;74.56
77019;BME280;66044;53.142;17.962;2023-11-21T08:35:41;100952.98;;;0.27;74.05
77019;BME280;66044;53.142;17.962;2023-11-21T08:38:08;100952.79;;;0.30;73.22
77019;BME280;66044;53.142;17.962;2023-11-21T08:40:36;100957.97;;;0.35;73.01
77019;BME280;66044;53.142;17.962;2023-11-21T08:43:02;100953.74;;;0.42;73.02
77019;BME280;66044;53.142;17.962;2023-11-21T08:45:31;100953.73;;;0.52;72.72
77019;BME280;66044;53.142;17.962;2023-11-21T08:48:01;100955.48;;;0.67;72.94
77019;BME280;66044;53.142;17.962;2023-11-21T08:50:29;100956.79;;;0.79;72.41
77019;BME280;66044;53.142;17.962;2023-11-21T08:52:56;100954.97;;;0.81;71.36
77019;BME280;66044;53.142;17.962;2023-11-21T08:55:23;100951.38;;;0.84;71.01
77019;BME280;66044;53.142;17.962;2023-11-21T08:57:50;100961.30;;;0.97;71.04
77019;BME280;66044;53.142;17.962;2023-11-21T09:00:17;100960.00;;;1.07;71.01
77019;BME280;66044;53.142;17.962;2023-11-21T09:02:45;100963.30;;;1.11;71.10
77019;BME280;66044;53.142;17.962;2023-11-21T09:05:13;100972.40;;;1.20;71.07
77019;BME280;66044;53.142;17.962;2023-11-21T09:07:41;100986.13;;;1.24;70.48
77019;BME280;66044;53.142;17.962;2023-11-21T09:10:08;100977.73;;;1.18;69.68
77019;BME280;66044;53.142;17.962;2023-11-21T09:12:36;100977.02;;;1.13;69.98
77019;BME280;66044;53.142;17.962;2023-11-21T09:15:05;100985.21;;;1.13;69.92
77019;BME280;66044;53.142;17.962;2023-11-21T09:17:33;100982.64;;;1.07;69.71
77019;BME280;66044;53.142;17.962;2023-11-21T09:20:04;100984.21;;;1.03;69.63
77019;BME280;66044;53.142;17.962;2023-11-21T09:22:32;100986.54;;;1.03;69.50
77019;BME280;66044;53.142;17.962;2023-11-21T09:24:59;100987.73;;;1.01;69.33
77019;BME280;66044;53.142;17.962;2023-11-21T09:27:26;100989.26;;;1.01;69.61
77019;BME280;66044;53.142;17.962;2023-11-21T09:29:52;100993.95;;;1.00;69.67
77019;BME280;66044;53.142;17.962;2023-11-21T09:32:20;100995.84;;;0.95;69.47
77019;BME280;66044;53.142;17.962;2023-11-21T09:34:50;100995.02;;;0.93;69.32
77019;BME280;66044;53.142;17.962;2023-11-21T09:37:17;101005.99;;;0.89;68.73
77019;BME280;66044;53.142;17.962;2023-11-21T09:39:43;101007.20;;;0.82;68.68
77019;BME280;66044;53.142;17.962;2023-11-21T09:42:23;101009.29;;;0.77;69.23
77019;BME280;66044;53.142;17.962;2023-11-21T09:45:15;101018.23;;;0.77;68.96
77019;BME280;66044;53.142;17.962;2023-11-21T09:47:46;101017.98;;;0.73;68.93
77019;BME280;66044;53.142;17.962;2023-11-21T09:50:17;101010.20;;;0.69;69.06
77019;BME280;66044;53.142;17.962;2023-11-21T09:53:19;101011.84;;;0.69;69.29
77019;BME280;66044;53.142;17.962;2023-11-21T09:55:51;101013.75;;;0.69;69.50
77019;BME280;66044;53.142;17.962;2023-11-21T09:58:19;101013.77;;;0.71;69.49
77019;BME280;66044;53.142;17.962;2023-11-21T10:00:47;101019.10;;;0.69;69.25
77019;BME280;66044;53.142;17.962;2023-11-21T10:03:15;101014.02;;;0.68;69.58
77019;BME280;66044;53.142;17.962;2023-11-21T10:05:43;101011.74;;;0.69;69.84
77019;BME280;66044;53.142;17.962;2023-11-21T10:08:12;101014.77;;;0.69;69.79
77019;BME280;66044;53.142;17.962;2023-11-21T10:10:46;101019.14;;;0.68;69.94
77019;BME280;66044;53.142;17.962;2023-11-21T10:13:17;101014.44;;;0.69;69.99
77019;BME280;66044;53.142;17.962;2023-11-21T10:15:50;101013.02;;;0.70;70.31
77019;BME280;66044;53.142;17.962;2023-11-21T10:18:17;101022.80;;;0.74;70.66
77019;BME280;66044;53.142;17.962;2023-11-21T10:20:44;101018.84;;;0.75;70.47
77019;BME280;66044;53.142;17.962;2023-11-21T10:23:22;101022.64;;;0.75;70.61
77019;BME280;66044;53.142;17.962;2023-11-21T10:25:50;101025.66;;;0.76;70.78
77019;BME280;66044;53.142;17.962;2023-11-21T10:28:17;101029.30;;;0.76;70.43
77019;BME280;66044;53.142;17.962;2023-11-21T10:30:44;101035.70;;;0.70;70.20
77019;BME280;66044;53.142;17.962;2023-11-21T10:33:10;101034.39;;;0.63;69.94
77019;BME280;66044;53.142;17.962;2023-11-21T10:35:48;101036.41;;;0.61;70.05
77019;BME280;66044;53.142;17.962;2023-11-21T10:38:20;101041.69;;;0.59;70.15
77019;BME280;66044;53.142;17.962;2023-11-21T10:40:50;101044.43;;;0.58;70.15
77019;BME280;66044;53.142;17.962;2023-11-21T10:43:18;101045.77;;;0.58;70.38
77019;BME280;66044;53.142;17.962;2023-11-21T10:45:44;101045.10;;;0.57;70.19
77019;BME280;66044;53.142;17.962;2023-11-21T10:48:15;101048.35;;;0.55;70.32
77019;BME280;66044;53.142;17.962;2023-11-21T10:50:43;101051.07;;;0.56;70.46
77019;BME280;66044;53.142;17.962;2023-11-21T10:53:09;101058.81;;;0.58;70.26
77019;BME280;66044;53.142;17.962;2023-11-21T10:55:38;101054.20;;;0.58;70.30
77019;BME280;66044;53.142;17.962;2023-11-21T10:58:04;101049.41;;;0.59;70.12
77019;BME280;66044;53.142;17.962;2023-11-21T11:00:33;101052.84;;;0.60;70.13
77019;BME280;66044;53.142;17.962;2023-11-21T11:03:00;101051.80;;;0.62;70.25
77019;BME280;66044;53.142;17.962;2023-11-21T11:05:28;101047.53;;;0.63;69.93
77019;BME280;66044;53.142;17.962;2023-11-21T11:08:04;101051.11;;;0.66;70.32
77019;BME280;66044;53.142;17.962;2023-11-21T11:10:31;101053.88;;;0.69;70.07
77019;BME280;66044;53.142;17.962;2023-11-21T11:12:58;101055.72;;;0.69;69.71
77019;BME280;66044;53.142;17.962;2023-11-21T11:15:27;101056.72;;;0.67;70.03
77019;BME280;66044;53.142;17.962;2023-11-21T11:17:55;101064.05;;;0.70;70.18
77019;BME280;66044;53.142;17.962;2023-11-21T11:20:29;101065.14;;;0.73;70.28
77019;BME280;66044;53.142;17.962;2023-11-21T11:26:10;101084.16;;;0.67;69.87
77019;BME280;66044;53.142;17.962;2023-11-21T11:28:46;101083.92;;;0.59;69.74
77019;BME280;66044;53.142;17.962;2023-11-21T11:31:26;101084.50;;;0.54;69.71
77019;BME280;66044;53.142;17.962;2023-11-21T11:34:11;101089.08;;;0.53;69.83
77019;BME280;66044;53.142;17.962;2023-11-21T11:37:00;101092.84;;;0.53;69.99
77019;BME280;66044;53.142;17.962;2023-11-21T11:39:38;101102.10;;;0.54;69.96
77019;BME280;66044;53.142;17.962;2023-11-21T11:42:18;101114.65;;;0.56;69.71
77019;BME280;66044;53.142;17.962;2023-11-21T11:44:48;101122.02;;;0.53;69.42
77019;BME280;66044;53.142;17.962;2023-11-21T11:47:28;101123.98;;;0.53;69.75
77019;BME280;66044;53.142;17.962;2023-11-21T11:50:01;101126.11;;;0.55;69.66
77019;BME280;66044;53.142;17.962;2023-11-21T11:52:50;101127.01;;;0.55;69.83
77019;BME280;66044;53.142;17.962;2023-11-21T11:55:20;101123.63;;;0.55;69.72
77019;BME280;66044;53.142;17.962;2023-11-21T11:57:49;101125.67;;;0.54;69.61
77019;BME280;66044;53.142;17.962;2023-11-21T12:00:18;101124.44;;;0.52;69.65
77019;BME280;66044;53.142;17.962;2023-11-21T12:02:48;101126.13;;;0.53;69.91
77019;BME280;66044;53.142;17.962;2023-11-21T12:05:17;101120.11;;;0.52;69.89
77019;BME280;66044;53.142;17.962;2023-11-21T12:07:48;101123.69;;;0.51;69.73
77019;BME280;66044;53.142;17.962;2023-11-21T12:10:17;101122.63;;;0.47;69.83
77019;BME280;66044;53.142;17.962;2023-11-21T12:12:54;101123.42;;;0.45;69.78
77019;BME280;66044;53.142;17.962;2023-11-21T12:15:22;101125.36;;;0.44;69.74
77019;BME280;66044;53.142;17.962;2023-11-21T12:17:49;101127.80;;;0.42;69.90
77019;BME280;66044;53.142;17.962;2023-11-21T12:20:19;101130.67;;;0.43;69.94
77019;BME280;66044;53.142;17.962;2023-11-21T12:22:47;101134.94;;;0.41;70.02
77019;BME280;66044;53.142;17.962;2023-11-21T12:25:27;101134.98;;;0.41;69.97
77019;BME280;66044;53.142;17.962;2023-11-21T12:27:56;101131.54;;;0.40;70.38
77019;BME280;66044;53.142;17.962;2023-11-21T12:30:25;101125.98;;;0.39;70.02
77019;BME280;66044;53.142;17.962;2023-11-21T12:32:55;101126.93;;;0.39;70.26
77019;BME280;66044;53.142;17.962;2023-11-21T12:35:33;101130.20;;;0.37;69.98
77019;BME280;66044;53.142;17.962;2023-11-21T12:38:02;101129.48;;;0.34;70.05
77019;BME280;66044;53.142;17.962;2023-11-21T12:40:32;101136.38;;;0.33;70.39
77019;BME280;66044;53.142;17.962;2023-11-21T12:43:00;101135.17;;;0.34;70.32
77019;BME280;66044;53.142;17.962;2023-11-21T12:45:28;101131.77;;;0.35;70.37
77019;BME280;66044;53.142;17.962;2023-11-21T12:48:00;101139.29;;;0.38;70.55
77019;BME280;66044;53.142;17.962;2023-11-21T12:50:31;101147.39;;;0.40;70.57
77019;BME280;66044;53.142;17.962;2023-11-21T12:53:07;101154.25;;;0.43;70.78
77019;BME280;66044;53.142;17.962;2023-11-21T12:55:43;101163.79;;;0.45;70.62